KBEH/BEH METAR and TAF weather

Enter ICAO airport designator
Station Type Date Time Source
KBEH METAR 2019/04/18 10:53 UTC NOAA

KBEH 181053Z AUTO 20010KT 10SM -RA OVC020 18/14 A2955 RMK AO2 LTG DSNT SW AND W RAB52 SLP005 P0000 T01780144


Station Type Date Time Source
KBEH Decoded METAR 2019/04/18 10:53 UTC NOAA

SOUTHWEST MICHIGAN REGIONAL, MI, United States (KBEH) 42-08N 86-25W 191M
Apr 18, 2019 - 06:53 AM EDT / 2019.04.18 1053 UTC
Wind: from the SSW (200 degrees) at 12 MPH (10 KT):0
Visibility: 10 mile(s):0
Sky conditions: overcast
Weather: light rain; Lightning observed
Precipitation last hour: A trace
Temperature: 64.0 F (17.8 C)
Dew Point: 57.9 F (14.4 C)
Relative Humidity: 80%
Pressure (altimeter): 29.55 in. Hg (1000 hPa)
ob: KBEH 181053Z AUTO 20010KT 10SM -RA OVC020 18/14 A2955 RMK AO2 LTG DSNT SW AND W RAB52 SLP005 P0000 T01780144
cycle: 11

Station Type Date Time Source
KBEH TAF UTC NOAA

Error!

Example: see airport list